createdAt,value
2023-06-10T00:01:21.657Z,11.90
2023-06-10T00:03:49.485Z,10.63
2023-06-10T00:06:17.095Z,11.13
2023-06-10T00:08:44.427Z,11.55
2023-06-10T00:11:11.841Z,13.02
2023-06-10T00:13:39.119Z,12.35
2023-06-10T00:16:06.504Z,13.90
2023-06-10T00:18:33.922Z,13.85
2023-06-10T00:21:05.513Z,13.10
2023-06-10T00:23:38.855Z,11.18
2023-06-10T00:26:06.480Z,11.65
2023-06-10T00:28:33.943Z,11.20
2023-06-10T00:31:02.085Z,9.10
2023-06-10T00:33:29.407Z,10.70
2023-06-10T00:35:56.600Z,12.07
2023-06-10T00:38:24.401Z,11.18
2023-06-10T00:40:51.648Z,11.65
2023-06-10T00:43:18.968Z,9.65
2023-06-10T00:45:46.468Z,10.13
2023-06-10T00:48:14.471Z,9.98
2023-06-10T00:50:41.924Z,12.88
2023-06-10T00:53:09.556Z,17.20
2023-06-10T00:55:37.034Z,12.77
2023-06-10T00:58:05.022Z,13.32
2023-06-10T01:00:32.327Z,15.00
2023-06-10T01:02:59.834Z,13.68
2023-06-10T01:05:27.390Z,19.38
2023-06-10T01:08:03.490Z,16.40
2023-06-10T01:10:32.082Z,11.00
2023-06-10T01:13:09.362Z,9.88
2023-06-10T01:15:36.969Z,14.80
2023-06-10T01:18:16.221Z,13.57
2023-06-10T01:20:45.157Z,11.43
2023-06-10T01:23:12.751Z,9.82
2023-06-10T01:25:45.227Z,11.60
2023-06-10T01:28:28.421Z,14.73
2023-06-10T01:31:18.092Z,14.05
2023-06-10T01:33:48.696Z,13.90
2023-06-10T01:36:17.971Z,19.10
2023-06-10T01:38:47.043Z,13.02
2023-06-10T01:41:15.374Z,13.80
2023-06-10T01:43:44.837Z,12.60
2023-06-10T01:46:12.430Z,12.88
2023-06-10T01:48:40.006Z,10.13
2023-06-10T01:51:07.461Z,14.77
2023-06-10T01:53:34.878Z,19.13
2023-06-10T01:56:03.091Z,14.45
2023-06-10T01:58:30.536Z,15.13
2023-06-10T02:00:58.329Z,10.27
2023-06-10T02:03:25.767Z,10.55
2023-06-10T02:05:53.040Z,9.50
2023-06-10T02:08:20.482Z,14.73
2023-06-10T02:10:48.390Z,9.98
2023-06-10T02:13:15.704Z,15.13
2023-06-10T02:15:43.118Z,13.50
2023-06-10T02:18:12.976Z,32.95
2023-06-10T02:20:40.566Z,12.35
2023-06-10T02:23:07.807Z,10.10
2023-06-10T02:25:35.140Z,17.15
2023-06-10T02:28:04.534Z,11.95
2023-06-10T02:30:32.072Z,15.02
2023-06-10T02:33:00.400Z,13.38
2023-06-10T02:35:28.470Z,16.88
2023-06-10T02:37:55.841Z,16.20
2023-06-10T02:49:12.679Z,14.02
2023-06-10T02:51:40.250Z,14.82
2023-06-10T02:54:07.694Z,10.07
2023-06-10T02:56:35.003Z,16.23
2023-06-10T02:59:02.499Z,12.30
2023-06-10T03:01:33.142Z,12.27
2023-06-10T03:04:00.808Z,13.23
2023-06-10T03:06:28.510Z,9.40
2023-06-10T03:08:55.796Z,16.48
2023-06-10T03:11:24.008Z,14.45
2023-06-10T03:13:51.417Z,13.13
2023-06-10T03:16:19.636Z,11.57
2023-06-10T03:18:47.161Z,10.45
2023-06-10T03:21:14.553Z,19.88
2023-06-10T03:23:41.882Z,10.60
2023-06-10T03:26:11.069Z,15.68
2023-06-10T03:28:38.427Z,14.32
2023-06-10T03:31:05.797Z,16.17
2023-06-10T03:33:33.624Z,12.75
2023-06-10T03:36:00.927Z,14.45
2023-06-10T03:38:28.604Z,16.10
2023-06-10T03:40:55.799Z,13.35
2023-06-10T03:43:23.007Z,13.57
2023-06-10T03:45:50.650Z,9.90
2023-06-10T03:48:18.436Z,10.98
2023-06-10T03:50:45.896Z,13.85
2023-06-10T03:53:13.536Z,20.52
2023-06-10T03:55:42.097Z,13.38
2023-06-10T03:58:09.729Z,19.80
2023-06-10T04:00:42.562Z,11.23
2023-06-10T04:03:10.710Z,11.07
2023-06-10T04:05:38.018Z,17.05
2023-06-10T04:08:06.306Z,18.85
2023-06-10T04:10:33.681Z,15.00
2023-06-10T04:13:01.069Z,13.52
2023-06-10T04:15:28.542Z,11.13
2023-06-10T04:17:56.430Z,10.85
2023-06-10T04:20:23.689Z,14.40
2023-06-10T04:22:51.009Z,19.13
2023-06-10T04:25:18.475Z,14.23
2023-06-10T04:27:45.766Z,15.95
2023-06-10T04:30:14.253Z,10.90
2023-06-10T04:32:41.472Z,10.90
2023-06-10T04:35:09.815Z,13.48
2023-06-10T04:37:37.297Z,17.13
2023-06-10T04:40:05.440Z,12.88
2023-06-10T04:42:33.460Z,9.55
2023-06-10T04:45:00.926Z,27.30
2023-06-10T04:47:28.506Z,18.90
2023-06-10T04:49:55.778Z,15.73
2023-06-10T04:52:23.136Z,15.00
2023-06-10T04:54:50.407Z,12.13
2023-06-10T04:57:18.366Z,13.32
2023-06-10T04:59:45.715Z,10.93
2023-06-10T05:02:13.261Z,14.88
2023-06-10T05:04:40.984Z,11.88
2023-06-10T05:07:08.189Z,14.77
2023-06-10T05:09:35.896Z,13.38
2023-06-10T05:12:03.973Z,12.73
2023-06-10T05:14:31.477Z,17.95
2023-06-10T05:16:58.744Z,12.77
2023-06-10T05:19:26.334Z,14.20
2023-06-10T05:21:53.603Z,13.38
2023-06-10T05:24:20.902Z,14.10
2023-06-10T05:26:49.738Z,15.57
2023-06-10T05:29:17.114Z,12.32
2023-06-10T05:31:44.403Z,17.52
2023-06-10T05:34:11.917Z,12.07
2023-06-10T05:36:39.145Z,10.40
2023-06-10T05:39:06.716Z,14.57
2023-06-10T05:41:34.163Z,11.27
2023-06-10T05:44:02.062Z,9.48
2023-06-10T05:46:29.703Z,10.30
2023-06-10T05:48:57.037Z,12.90
2023-06-10T05:51:24.279Z,11.80
2023-06-10T05:53:51.591Z,14.30
2023-06-10T05:56:18.998Z,15.95
2023-06-10T05:58:46.529Z,13.07
2023-06-10T06:01:13.808Z,10.05
2023-06-10T06:03:41.131Z,15.32
2023-06-10T06:06:08.401Z,13.10
2023-06-10T06:08:36.009Z,10.65
2023-06-10T06:11:03.529Z,11.82
2023-06-10T06:13:30.942Z,9.38
2023-06-10T06:15:58.743Z,10.50
2023-06-10T06:18:26.098Z,11.90
2023-06-10T06:20:53.428Z,9.45
2023-06-10T06:23:20.983Z,11.88
2023-06-10T06:25:48.378Z,10.90
2023-06-10T06:28:15.585Z,8.27
2023-06-10T06:30:43.281Z,8.82
2023-06-10T06:33:10.716Z,16.48
2023-06-10T06:35:39.263Z,8.95
2023-06-10T06:38:06.580Z,11.15
2023-06-10T06:40:33.860Z,11.50
2023-06-10T06:43:01.334Z,9.00
2023-06-10T06:45:28.635Z,9.50
2023-06-10T06:47:57.236Z,11.57
2023-06-10T06:50:24.568Z,13.65
2023-06-10T06:52:51.747Z,9.02
2023-06-10T06:55:19.135Z,8.65
2023-06-10T06:57:46.394Z,8.68
2023-06-10T07:00:13.898Z,9.50
2023-06-10T07:02:41.294Z,9.82
2023-06-10T07:05:09.274Z,10.95
2023-06-10T07:07:36.891Z,9.00
2023-06-10T07:10:04.481Z,10.52
2023-06-10T07:12:32.031Z,14.25
2023-06-10T07:14:59.246Z,12.57
2023-06-10T07:17:27.997Z,11.02
2023-06-10T07:19:58.389Z,13.65
2023-06-10T07:22:25.649Z,10.20
2023-06-10T07:24:53.642Z,10.73
2023-06-10T07:27:20.901Z,9.93
2023-06-10T07:29:48.530Z,11.40
2023-06-10T07:32:17.814Z,11.98
2023-06-10T07:34:47.071Z,12.38
2023-06-10T07:37:14.388Z,11.30
2023-06-10T07:39:41.692Z,9.77
2023-06-10T07:42:09.076Z,12.40
2023-06-10T07:44:36.420Z,12.35
2023-06-10T07:47:03.968Z,9.50
2023-06-10T07:49:31.834Z,11.27
2023-06-10T07:51:59.075Z,10.40
2023-06-10T07:54:28.518Z,11.00
2023-06-10T07:56:57.414Z,21.23
2023-06-10T07:59:26.738Z,10.13
2023-06-10T08:01:54.469Z,11.88
2023-06-10T08:04:21.846Z,11.45
2023-06-10T08:06:49.241Z,8.57
2023-06-10T08:09:16.857Z,13.60
2023-06-10T08:11:44.425Z,10.60
2023-06-10T08:14:11.691Z,12.82
2023-06-10T08:16:38.943Z,9.15
2023-06-10T08:19:06.299Z,8.00
2023-06-10T08:21:34.615Z,7.03
2023-06-10T08:24:02.221Z,11.48
2023-06-10T08:26:29.612Z,9.15
2023-06-10T08:28:56.837Z,11.10
2023-06-10T08:31:24.111Z,10.63
2023-06-10T08:33:51.633Z,12.48
2023-06-10T08:36:18.928Z,10.63
2023-06-10T08:38:46.429Z,11.00
2023-06-10T08:41:15.838Z,14.35
2023-06-10T08:43:45.589Z,10.50
2023-06-10T08:46:15.248Z,18.45
2023-06-10T08:48:45.576Z,9.40
2023-06-10T08:51:15.188Z,6.13
2023-06-10T08:53:51.923Z,14.93
2023-06-10T08:56:19.518Z,12.13
2023-06-10T08:58:47.768Z,9.38
2023-06-10T09:01:15.172Z,10.77
2023-06-10T09:03:42.741Z,10.80
2023-06-10T09:06:10.306Z,7.78
2023-06-10T09:08:37.758Z,12.63
2023-06-10T09:11:05.031Z,12.35
2023-06-10T09:13:33.281Z,11.38
2023-06-10T09:16:03.041Z,10.75
2023-06-10T09:18:31.247Z,10.40
2023-06-10T09:20:58.814Z,14.40
2023-06-10T09:23:26.686Z,9.20
2023-06-10T09:25:58.083Z,12.98
2023-06-10T09:28:25.778Z,13.15
2023-06-10T09:31:06.625Z,17.90
2023-06-10T09:33:34.440Z,11.60
2023-06-10T09:36:03.510Z,15.77
2023-06-10T09:38:33.181Z,9.18
2023-06-10T09:41:02.496Z,14.82
2023-06-10T09:43:42.763Z,13.80
2023-06-10T09:46:20.157Z,11.90
2023-06-10T09:48:49.132Z,12.65
2023-06-10T09:51:18.312Z,13.38
2023-06-10T09:53:51.204Z,9.45
2023-06-10T09:56:18.973Z,9.02
2023-06-10T09:58:48.088Z,29.52
2023-06-10T10:01:16.825Z,9.10
2023-06-10T10:03:49.010Z,14.25
2023-06-10T10:06:18.280Z,9.57
2023-06-10T10:08:50.889Z,14.63
2023-06-10T10:11:19.591Z,18.45
2023-06-10T10:13:48.968Z,13.65
2023-06-10T10:16:18.419Z,12.38
2023-06-10T10:19:09.201Z,7.90
2023-06-10T10:21:41.132Z,8.70
2023-06-10T10:24:11.133Z,11.63
2023-06-10T10:26:39.572Z,8.35
2023-06-10T10:29:23.797Z,7.25
2023-06-10T10:31:56.459Z,7.93
2023-06-10T10:34:32.745Z,7.13
2023-06-10T10:37:00.181Z,6.05
2023-06-10T10:39:29.346Z,5.18
2023-06-10T10:41:57.054Z,9.73
2023-06-10T10:44:24.799Z,5.80
2023-06-10T10:46:52.248Z,4.90
2023-06-10T10:49:19.654Z,5.32
2023-06-10T10:52:00.023Z,4.85
2023-06-10T10:54:33.128Z,8.52
2023-06-10T10:57:13.985Z,4.80
2023-06-10T10:59:48.226Z,10.80
2023-06-10T11:02:41.587Z,4.30
2023-06-10T11:05:10.071Z,4.18
2023-06-10T11:07:37.827Z,3.70
2023-06-10T11:10:07.935Z,5.00
2023-06-10T11:12:55.398Z,6.30
2023-06-10T11:15:27.875Z,4.03
2023-06-10T11:18:14.741Z,4.65
2023-06-10T11:20:50.766Z,5.18
2023-06-10T11:23:29.983Z,6.32
2023-06-10T11:26:18.501Z,4.63
2023-06-10T11:28:48.621Z,3.85
2023-06-10T11:31:23.440Z,5.30
2023-06-10T11:36:20.970Z,5.35
2023-06-10T11:38:49.510Z,4.82
2023-06-10T11:41:18.817Z,6.85
2023-06-10T11:43:49.093Z,3.38
2023-06-10T11:46:16.627Z,6.28
2023-06-10T11:48:51.880Z,4.25
2023-06-10T11:51:19.478Z,8.75
2023-06-10T11:53:48.226Z,4.57
2023-06-10T11:56:21.360Z,5.00
2023-06-10T11:59:06.782Z,6.75
2023-06-10T12:01:36.185Z,8.52
2023-06-10T12:04:11.020Z,7.03
2023-06-10T12:06:49.750Z,6.40
2023-06-10T12:09:54.594Z,4.38
2023-06-10T12:12:21.970Z,4.85
2023-06-10T12:14:56.658Z,4.05
2023-06-10T12:17:25.238Z,5.40
2023-06-10T12:19:52.916Z,5.13
2023-06-10T12:22:20.967Z,5.70
2023-06-10T12:25:03.105Z,7.45
2023-06-10T12:27:31.812Z,5.88
2023-06-10T12:30:05.287Z,9.40
2023-06-10T12:32:47.127Z,6.40
2023-06-10T12:35:19.111Z,6.10
2023-06-10T12:38:08.039Z,6.60
2023-06-10T12:40:39.008Z,5.10
2023-06-10T12:43:06.470Z,6.43
2023-06-10T12:45:35.688Z,6.28
2023-06-10T12:48:12.879Z,7.38
2023-06-10T12:50:41.355Z,6.90
2023-06-10T12:53:09.237Z,6.50
2023-06-10T12:55:36.612Z,8.57
2023-06-10T12:58:04.559Z,8.77
2023-06-10T13:00:32.076Z,9.00
2023-06-10T13:03:02.285Z,8.95
2023-06-10T13:05:30.724Z,7.55
2023-06-10T13:07:59.074Z,9.48
2023-06-10T13:10:26.936Z,9.07
2023-06-10T13:12:55.916Z,8.15
2023-06-10T13:15:23.575Z,6.55
2023-06-10T13:17:52.319Z,5.45
2023-06-10T13:20:20.453Z,8.55
2023-06-10T13:22:48.960Z,8.30
2023-06-10T13:25:17.238Z,6.63
2023-06-10T13:27:45.071Z,8.70
2023-06-10T13:30:12.800Z,8.77
2023-06-10T13:32:40.350Z,12.30
2023-06-10T13:35:09.168Z,6.75
2023-06-10T13:37:37.439Z,9.15
2023-06-10T13:40:05.840Z,6.50
2023-06-10T13:42:33.402Z,7.00
2023-06-10T13:45:00.719Z,14.15
2023-06-10T13:47:28.014Z,6.72
2023-06-10T13:49:55.361Z,6.25
2023-06-10T13:52:22.640Z,7.85
2023-06-10T13:54:49.889Z,6.70
2023-06-10T13:57:17.268Z,8.88
2023-06-10T13:59:44.914Z,9.25
2023-06-10T14:02:12.286Z,7.25
2023-06-10T14:04:39.679Z,6.88
2023-06-10T14:07:06.945Z,9.73
2023-06-10T14:09:34.467Z,6.72
2023-06-10T14:12:01.844Z,10.82
2023-06-10T14:14:29.170Z,7.95
2023-06-10T14:16:57.093Z,7.00
2023-06-10T14:19:24.530Z,6.70
2023-06-10T14:21:51.789Z,6.40
2023-06-10T14:24:19.443Z,5.30
2023-06-10T14:26:46.888Z,6.43
2023-06-10T14:29:15.446Z,5.05
2023-06-10T14:31:42.962Z,8.38
2023-06-10T14:34:10.452Z,5.63
2023-06-10T14:36:38.327Z,6.03
2023-06-10T14:39:05.836Z,6.47
2023-06-10T14:41:33.233Z,5.22
2023-06-10T14:44:00.405Z,6.50
2023-06-10T14:46:27.709Z,7.03
2023-06-10T14:48:55.013Z,9.02
2023-06-10T14:51:22.395Z,6.00
2023-06-10T14:53:49.950Z,11.02
2023-06-10T14:56:17.345Z,7.13
2023-06-10T14:58:44.822Z,8.43
2023-06-10T15:01:12.048Z,10.80
2023-06-10T15:03:39.328Z,10.65
2023-06-10T15:06:06.572Z,12.60
2023-06-10T15:08:34.342Z,15.05
2023-06-10T15:11:04.154Z,17.33
2023-06-10T15:13:31.568Z,20.10
2023-06-10T15:16:01.032Z,24.45
2023-06-10T15:18:30.744Z,27.77
2023-06-10T15:20:58.026Z,32.58
2023-06-10T15:23:25.745Z,35.83
2023-06-10T15:25:53.000Z,38.70
2023-06-10T15:28:20.328Z,44.60
2023-06-10T15:30:49.747Z,54.67
2023-06-10T15:33:17.029Z,57.40
2023-06-10T15:35:44.623Z,53.55
2023-06-10T15:38:12.051Z,50.10
2023-06-10T15:40:41.995Z,38.83
2023-06-10T15:43:09.210Z,29.48
2023-06-10T15:45:36.502Z,19.10
2023-06-10T15:48:04.358Z,16.27
2023-06-10T15:50:31.959Z,12.52
2023-06-10T15:52:59.487Z,14.25
2023-06-10T15:55:27.589Z,12.38
2023-06-10T15:57:55.350Z,11.85
2023-06-10T16:00:22.685Z,9.43
2023-06-10T16:02:50.001Z,10.85
2023-06-10T16:05:17.520Z,8.25
2023-06-10T16:07:44.976Z,9.10
2023-06-10T16:10:12.218Z,10.32
2023-06-10T16:12:39.477Z,10.73
2023-06-10T16:15:07.802Z,9.50
2023-06-10T16:17:35.404Z,10.52
2023-06-10T16:20:02.878Z,9.70
2023-06-10T16:22:30.198Z,9.60
2023-06-10T16:24:57.454Z,10.40
2023-06-10T16:27:26.463Z,6.63
2023-06-10T16:29:54.267Z,7.53
2023-06-10T16:32:21.584Z,6.13
2023-06-10T16:34:49.460Z,8.35
2023-06-10T16:37:17.164Z,9.15
2023-06-10T16:39:44.483Z,7.95
2023-06-10T16:42:11.691Z,7.05
2023-06-10T16:44:38.934Z,5.30
2023-06-10T16:47:06.478Z,5.38
2023-06-10T16:49:35.437Z,4.70
2023-06-10T16:52:03.282Z,5.57
2023-06-10T16:54:30.604Z,5.88
2023-06-10T16:56:58.009Z,7.82
2023-06-10T16:59:25.275Z,7.53
2023-06-10T17:01:52.593Z,7.50
2023-06-10T17:04:19.902Z,8.55
2023-06-10T17:06:47.298Z,5.45
2023-06-10T17:09:14.559Z,10.25
2023-06-10T17:11:41.826Z,5.63
2023-06-10T17:14:09.100Z,7.88
2023-06-10T17:16:36.670Z,5.95
2023-06-10T17:19:04.117Z,7.47
2023-06-10T17:21:31.730Z,5.80
2023-06-10T17:23:59.196Z,10.27
2023-06-10T17:26:27.962Z,8.48
2023-06-10T17:28:55.524Z,11.45
2023-06-10T17:31:22.793Z,15.57
2023-06-10T17:33:50.175Z,17.02
2023-06-10T17:36:19.140Z,17.10
2023-06-10T17:38:46.525Z,10.80
2023-06-10T17:41:13.946Z,8.65
2023-06-10T17:43:43.069Z,10.57
2023-06-10T17:46:12.606Z,10.38
2023-06-10T17:48:39.881Z,5.25
2023-06-10T17:51:07.034Z,7.60
2023-06-10T17:53:35.097Z,8.52
2023-06-10T17:56:02.829Z,8.05
2023-06-10T17:58:30.043Z,5.10
2023-06-10T18:01:01.669Z,4.60
2023-06-10T18:03:30.054Z,5.13
2023-06-10T18:06:07.038Z,6.40
2023-06-10T18:08:39.200Z,6.25
2023-06-10T18:11:06.537Z,5.63
2023-06-10T18:13:34.413Z,6.93
2023-06-10T18:16:01.689Z,7.10
2023-06-10T18:18:29.703Z,4.82
2023-06-10T18:20:57.575Z,7.45
2023-06-10T18:23:25.885Z,6.50
2023-06-10T18:25:53.120Z,7.32
2023-06-10T18:28:20.402Z,6.95
2023-06-10T18:30:47.909Z,5.30
2023-06-10T18:33:15.378Z,6.25
2023-06-10T18:35:42.661Z,10.65
2023-06-10T18:38:10.286Z,6.72
2023-06-10T18:40:37.493Z,5.45
2023-06-10T18:43:05.229Z,6.30
2023-06-10T18:45:32.593Z,8.00
2023-06-10T18:48:00.217Z,8.80
2023-06-10T18:50:27.821Z,5.13
2023-06-10T18:52:55.017Z,7.47
2023-06-10T18:55:22.291Z,10.38
2023-06-10T18:57:50.182Z,6.90
2023-06-10T19:00:17.856Z,6.63
2023-06-10T19:02:45.384Z,5.10
2023-06-10T19:05:14.335Z,5.13
2023-06-10T19:07:41.591Z,6.65
2023-06-10T19:10:09.180Z,10.13
2023-06-10T19:12:36.433Z,7.00
2023-06-10T19:15:04.545Z,6.50
2023-06-10T19:17:32.234Z,13.23
2023-06-10T19:19:59.597Z,9.38
2023-06-10T19:22:26.881Z,14.55
2023-06-10T19:25:04.454Z,9.27
2023-06-10T19:27:31.920Z,7.50
2023-06-10T19:29:59.427Z,8.30
2023-06-10T19:32:27.699Z,10.10
2023-06-10T19:34:55.027Z,12.80
2023-06-10T19:37:22.297Z,8.38
2023-06-10T19:39:49.894Z,8.88
2023-06-10T19:42:17.188Z,6.40
2023-06-10T19:44:45.410Z,11.43
2023-06-10T19:47:12.754Z,9.05
2023-06-10T19:49:40.010Z,9.77
2023-06-10T19:52:08.038Z,9.63
2023-06-10T19:54:36.673Z,8.32
2023-06-10T19:57:04.627Z,8.55
2023-06-10T19:59:33.920Z,11.70
2023-06-10T20:02:04.200Z,8.18
2023-06-10T20:04:46.774Z,10.25
2023-06-10T20:07:20.265Z,8.80
2023-06-10T20:09:48.093Z,7.95
2023-06-10T20:12:15.374Z,10.88
2023-06-10T20:14:42.589Z,10.20
2023-06-10T20:17:09.845Z,8.43
2023-06-10T20:19:37.004Z,9.90
2023-06-10T20:22:05.167Z,12.10
2023-06-10T20:24:32.823Z,10.85
2023-06-10T20:27:00.516Z,12.65
2023-06-10T20:29:27.838Z,13.38
2023-06-10T20:31:55.132Z,10.32
2023-06-10T20:34:23.029Z,17.02
2023-06-10T20:36:50.365Z,9.38
2023-06-10T20:39:19.143Z,6.78
2023-06-10T20:41:46.637Z,7.03
2023-06-10T20:44:14.882Z,15.63
2023-06-10T20:46:42.223Z,8.60
2023-06-10T20:49:09.994Z,6.88
2023-06-10T20:51:38.786Z,9.18
2023-06-10T20:54:06.150Z,8.63
2023-06-10T20:56:33.533Z,9.50
2023-06-10T20:59:01.091Z,8.07
2023-06-10T21:01:28.677Z,12.00
2023-06-10T21:03:56.161Z,12.00
2023-06-10T21:06:23.940Z,13.43
2023-06-10T21:08:52.376Z,6.60
2023-06-10T21:11:20.012Z,13.73
2023-06-10T21:13:47.372Z,9.30
2023-06-10T21:16:14.795Z,10.32
2023-06-10T21:18:42.342Z,5.28
2023-06-10T21:21:09.768Z,13.48
2023-06-10T21:23:37.055Z,12.88
2023-06-10T21:26:06.513Z,6.47
2023-06-10T21:28:34.578Z,6.20
2023-06-10T21:31:03.632Z,9.95
2023-06-10T21:33:31.136Z,8.45
2023-06-10T21:35:58.668Z,7.80
2023-06-10T21:38:26.437Z,9.48
2023-06-10T21:40:55.412Z,6.68
2023-06-10T21:43:22.640Z,6.95
2023-06-10T21:49:30.972Z,11.27
2023-06-10T21:51:58.381Z,6.13
2023-06-10T21:54:25.691Z,9.15
2023-06-10T21:56:52.949Z,9.80
2023-06-10T21:59:23.552Z,9.70
2023-06-10T22:01:50.845Z,11.68
2023-06-10T22:04:18.548Z,10.63
2023-06-10T22:06:47.055Z,7.03
2023-06-10T22:09:14.317Z,5.95
2023-06-10T22:11:41.658Z,6.93
2023-06-10T22:14:08.903Z,11.15
2023-06-10T22:16:36.159Z,7.50
2023-06-10T22:19:03.735Z,5.32
2023-06-10T22:21:31.440Z,7.60
2023-06-10T22:23:58.825Z,7.63
2023-06-10T22:26:36.865Z,7.07
2023-06-10T22:29:11.120Z,4.97
2023-06-10T22:31:38.413Z,6.35
2023-06-10T22:34:05.646Z,7.13
2023-06-10T22:36:32.997Z,5.50
2023-06-10T22:39:00.394Z,9.27
2023-06-10T22:41:27.926Z,10.63
2023-06-10T22:43:55.266Z,5.47
2023-06-10T22:46:22.508Z,9.23
2023-06-10T22:48:50.299Z,4.97
2023-06-10T22:51:17.873Z,10.68
2023-06-10T22:53:45.122Z,4.72
2023-06-10T22:56:12.416Z,9.50
2023-06-10T22:58:39.606Z,6.20
2023-06-10T23:01:06.855Z,4.38
2023-06-10T23:03:34.519Z,4.18
2023-06-10T23:06:02.148Z,6.32
2023-06-10T23:08:29.442Z,5.72
2023-06-10T23:10:56.778Z,8.10
2023-06-10T23:13:24.031Z,6.10
2023-06-10T23:15:51.225Z,9.98
2023-06-10T23:18:18.509Z,6.63
2023-06-10T23:20:47.655Z,6.32
2023-06-10T23:23:16.119Z,5.85
2023-06-10T23:25:45.750Z,6.50
2023-06-10T23:28:13.189Z,4.47
2023-06-10T23:30:40.694Z,8.20
2023-06-10T23:33:08.391Z,6.00
2023-06-10T23:35:35.775Z,5.43
2023-06-10T23:38:03.121Z,11.13
2023-06-10T23:40:30.722Z,4.57
2023-06-10T23:42:58.028Z,10.70
2023-06-10T23:45:25.313Z,6.60
2023-06-10T23:47:53.665Z,9.90
2023-06-10T23:50:20.909Z,8.93
2023-06-10T23:52:49.750Z,7.70
2023-06-10T23:55:17.225Z,7.72
2023-06-10T23:57:44.736Z,6.68
